Time;durP1;ratioP1;P1;durP2;ratioP2;P2;SDS_P1;SDS_P2;PMS_P1;PMS_P2;Temp;Humidity;BMP_temperature;BMP_pressure;BME280_temperature;BME280_humidity;BME280_pressure;Samples;Min_cycle;Max_cycle;Signal;HPM_P1;HPM_P2
2022/11/14 00:00:19;;;;;;;44.50;22.20;;;;;;;7.43;100.00;101890.19;7390118;19;20383;-55
2022/11/14 00:02:51;;;;;;;39.90;20.70;;;;;;;7.42;100.00;101889.31;7391706;19;20423;-52
2022/11/14 00:05:21;;;;;;;43.00;21.47;;;;;;;7.38;100.00;101895.00;7391321;19;20384;-51
2022/11/14 00:07:50;;;;;;;42.07;23.43;;;;;;;7.34;100.00;101881.81;7390959;19;20391;-52
2022/11/14 00:10:20;;;;;;;43.90;24.37;;;;;;;7.41;100.00;101874.69;7394368;19;20392;-50
2022/11/14 00:12:50;;;;;;;43.80;23.20;;;;;;;7.42;100.00;101881.59;7393941;19;20423;-50
2022/11/14 00:15:19;;;;;;;43.50;22.63;;;;;;;7.32;100.00;101884.28;7389596;19;20414;-51
2022/11/14 00:17:51;;;;;;;40.73;22.60;;;;;;;7.16;100.00;101872.91;7393185;19;20464;-50
2022/11/14 00:20:21;;;;;;;48.70;21.87;;;;;;;7.07;100.00;101877.34;7389751;19;20395;-51
2022/11/14 00:22:50;;;;;;;46.17;23.47;;;;;;;7.12;100.00;101868.31;7391115;19;20427;-53
2022/11/14 00:25:20;;;;;;;46.90;23.43;;;;;;;7.20;100.00;101860.28;7392387;19;20394;-51
2022/11/14 00:27:49;;;;;;;44.07;21.87;;;;;;;7.07;100.00;101867.06;7390935;19;21238;-54
2022/11/14 00:30:19;;;;;;;40.40;20.60;;;;;;;7.05;100.00;101868.63;7389445;19;20493;-55
2022/11/14 00:32:51;;;;;;;40.77;22.07;;;;;;;6.96;100.00;101862.81;7394807;19;20431;-52
2022/11/14 00:35:21;;;;;;;45.00;23.50;;;;;;;6.97;100.00;101856.91;7393110;19;20380;-51
2022/11/14 00:37:50;;;;;;;42.40;23.23;;;;;;;7.00;100.00;101857.13;7389060;19;20455;-52
2022/11/14 00:40:20;;;;;;;43.30;23.13;;;;;;;6.98;100.00;101846.75;7392491;19;20419;-57
2022/11/14 00:42:49;;;;;;;46.27;23.90;;;;;;;6.97;100.00;101838.97;7388494;19;20473;-49
2022/11/14 00:45:19;;;;;;;50.03;23.70;;;;;;;6.95;100.00;101831.13;7392706;19;20425;-53
2022/11/14 00:47:51;;;;;;;46.97;24.60;;;;;;;7.00;100.00;101836.59;7388841;19;20415;-51
2022/11/14 00:50:21;;;;;;;46.30;22.30;;;;;;;7.01;100.00;101826.47;7392030;19;20383;-51
2022/11/14 00:52:50;;;;;;;48.33;23.63;;;;;;;6.95;100.00;101820.88;7388660;19;20403;-50
2022/11/14 00:55:20;;;;;;;43.27;23.13;;;;;;;7.02;100.00;101807.72;7392531;19;20406;-50
2022/11/14 00:57:49;;;;;;;47.83;23.77;;;;;;;6.97;100.00;101808.16;7389850;19;20528;-54
2022/11/14 01:00:19;;;;;;;44.23;23.40;;;;;;;6.96;100.00;101809.81;7391490;19;20408;-55
2022/11/14 01:02:48;;;;;;;45.43;24.10;;;;;;;6.84;100.00;101807.25;7386692;19;20789;-52
2022/11/14 01:05:20;;;;;;;46.17;23.40;;;;;;;6.75;100.00;101799.78;7392379;19;20399;-52
2022/11/14 01:07:50;;;;;;;48.47;25.17;;;;;;;6.77;100.00;101796.44;7387696;19;20415;-54
2022/11/14 01:10:20;;;;;;;47.80;23.50;;;;;;;6.73;100.00;101792.75;7391772;19;20406;-53
2022/11/14 01:12:50;;;;;;;47.90;23.37;;;;;;;6.64;100.00;101787.81;7387503;19;20418;-52
2022/11/14 01:15:19;;;;;;;44.73;22.23;;;;;;;6.58;100.00;101793.41;7391226;19;20913;-52
2022/11/14 01:17:49;;;;;;;44.07;23.53;;;;;;;6.62;100.00;101785.13;7389539;19;20523;-52
2022/11/14 01:20:21;;;;;;;49.03;23.40;;;;;;;6.53;100.00;101792.16;7390794;19;20410;-52
2022/11/14 01:22:51;;;;;;;48.27;24.30;;;;;;;6.69;100.00;101785.59;7387355;19;20402;-53
2022/11/14 01:25:20;;;;;;;42.73;21.83;;;;;;;6.70;100.00;101782.25;7390402;19;20390;-54
2022/11/14 01:27:49;;;;;;;50.47;24.60;;;;;;;6.55;100.00;101793.16;7388090;19;20421;-54
2022/11/14 01:30:19;;;;;;;45.80;23.00;;;;;;;6.65;100.00;101778.47;7390164;19;20413;-51
2022/11/14 01:32:48;;;;;;;50.47;25.10;;;;;;;6.84;100.00;101779.03;7389053;19;20407;-53
2022/11/14 01:35:21;;;;;;;46.10;23.83;;;;;;;6.72;100.00;101779.00;7390992;19;20410;-54
2022/11/14 01:37:50;;;;;;;53.93;25.47;;;;;;;6.61;100.00;101772.19;7387274;19;20786;-51
2022/11/14 01:40:20;;;;;;;47.23;24.17;;;;;;;6.57;100.00;101770.19;7389261;19;20391;-51
2022/11/14 01:43:25;;;;;;;46.93;23.90;;;;;;;6.61;100.00;101751.69;7386508;19;20932;-55
2022/11/14 01:45:58;;;;;;;46.33;23.50;;;;;;;6.56;100.00;101759.03;7387322;19;20411;-52
2022/11/14 01:48:31;;;;;;;42.60;22.50;;;;;;;6.70;100.00;101747.25;7385787;19;20419;-57
2022/11/14 01:51:10;;;;;;;46.07;22.97;;;;;;;6.54;100.00;101746.88;7389545;19;20409;-55
2022/11/14 01:53:39;;;;;;;46.03;23.33;;;;;;;6.44;100.00;101742.75;7387872;19;20408;-54
2022/11/14 01:56:11;;;;;;;45.80;23.90;;;;;;;6.40;100.00;101736.50;7390303;19;20406;-54
2022/11/14 01:58:43;;;;;;;47.70;23.50;;;;;;;6.37;100.00;101728.59;7386982;19;20448;-50
2022/11/14 02:01:13;;;;;;;45.97;22.93;;;;;;;6.50;100.00;101724.38;7389998;19;20499;-52
2022/11/14 02:03:45;;;;;;;97.43;44.90;;;;;;;6.68;100.00;101718.03;7391653;19;20427;-51
2022/11/14 02:06:20;;;;;;;51.23;23.60;;;;;;;6.58;100.00;101713.91;7389534;19;20395;-53
2022/11/14 02:08:50;;;;;;;47.37;23.40;;;;;;;6.46;100.00;101706.19;7385555;19;20415;-50
2022/11/14 02:11:20;;;;;;;44.87;22.60;;;;;;;6.55;100.00;101705.97;7388606;19;20437;-53
2022/11/14 02:13:49;;;;;;;53.80;25.37;;;;;;;6.59;100.00;101692.59;7387084;19;20445;-54
2022/11/14 02:16:19;;;;;;;60.10;27.40;;;;;;;6.61;100.00;101691.03;7393336;19;20416;-52
2022/11/14 02:18:48;;;;;;;52.60;25.00;;;;;;;6.68;100.00;101692.38;7386281;19;20434;-50
2022/11/14 02:21:20;;;;;;;51.43;24.27;;;;;;;6.71;100.00;101687.47;7389104;19;20433;-52
2022/11/14 02:23:50;;;;;;;52.60;23.93;;;;;;;6.83;100.00;101681.44;7388585;19;20454;-50
2022/11/14 02:26:20;;;;;;;45.90;23.27;;;;;;;6.58;100.00;101679.66;7386191;19;20410;-51
2022/11/14 02:28:50;;;;;;;51.03;24.40;;;;;;;6.41;100.00;101676.75;7381678;19;20453;-52
2022/11/14 02:31:19;;;;;;;48.83;23.87;;;;;;;6.45;100.00;101672.72;7385088;19;20465;-54
2022/11/14 02:33:49;;;;;;;50.27;25.00;;;;;;;6.52;100.00;101664.75;7383716;19;20409;-52
2022/11/14 02:36:21;;;;;;;48.50;24.80;;;;;;;6.54;100.00;101668.28;7390225;19;20416;-54
2022/11/14 02:38:50;;;;;;;49.33;25.10;;;;;;;6.56;100.00;101661.59;7388974;19;20439;-52
2022/11/14 02:41:19;;;;;;;57.37;26.70;;;;;;;6.45;100.00;101663.38;7398027;19;20794;-50
2022/11/14 02:43:49;;;;;;;53.37;26.10;;;;;;;6.40;100.00;101658.72;7391172;19;20483;-54
2022/11/14 02:46:18;;;;;;;47.33;23.80;;;;;;;6.54;100.00;101657.13;7393970;19;20387;-53
2022/11/14 02:48:48;;;;;;;49.57;24.33;;;;;;;6.47;100.00;101650.69;7389155;19;20452;-53
2022/11/14 02:51:17;;;;;;;55.07;24.17;;;;;;;6.38;100.00;101640.66;7393564;19;20440;-51
2022/11/14 02:53:49;;;;;;;49.20;24.60;;;;;;;6.27;100.00;101644.09;7390840;19;20409;-52
2022/11/14 02:56:18;;;;;;;50.47;24.00;;;;;;;6.33;100.00;101637.75;7393600;19;20395;-53
2022/11/14 02:58:48;;;;;;;55.60;25.03;;;;;;;6.31;100.00;101638.44;7390673;19;20413;-53
2022/11/14 03:01:17;;;;;;;47.37;22.90;;;;;;;6.37;100.00;101627.72;7393115;19;20430;-52
2022/11/14 03:03:50;;;;;;;50.63;23.17;;;;;;;6.29;100.00;101630.63;7390919;19;20479;-50
2022/11/14 03:06:19;;;;;;;46.37;23.13;;;;;;;6.33;100.00;101621.47;7393437;19;20425;-52
2022/11/14 03:08:51;;;;;;;52.53;25.33;;;;;;;6.23;100.00;101619.91;7388562;19;20444;-51
2022/11/14 03:11:20;;;;;;;56.00;26.20;;;;;;;6.21;100.00;101617.22;7392684;19;20437;-52
2022/11/14 03:13:50;;;;;;;49.17;23.70;;;;;;;6.22;100.00;101616.44;7390720;19;20414;-51
2022/11/14 03:16:19;;;;;;;52.17;25.10;;;;;;;6.26;100.00;101599.63;7393215;19;20421;-52
2022/11/14 03:18:49;;;;;;;55.80;27.90;;;;;;;6.23;100.00;101612.22;7391113;19;20438;-51
2022/11/14 03:21:20;;;;;;;52.93;25.00;;;;;;;6.30;100.00;101599.06;7392515;19;20417;-50
2022/11/14 03:23:52;;;;;;;53.50;25.17;;;;;;;6.32;100.00;101600.06;7390627;19;20389;-53
2022/11/14 03:26:21;;;;;;;48.30;22.90;;;;;;;6.29;100.00;101594.72;7392918;19;20403;-51
2022/11/14 03:28:51;;;;;;;49.53;24.47;;;;;;;6.42;100.00;101590.50;7242501;19;2859702;-52
2022/11/14 03:31:20;;;;;;;50.80;25.33;;;;;;;6.28;100.00;101592.03;7394934;19;20167;-51
2022/11/14 03:33:49;;;;;;;50.20;24.87;;;;;;;6.32;100.00;101587.25;7384905;19;20441;-50
2022/11/14 03:36:19;;;;;;;51.70;26.27;;;;;;;6.32;100.00;101584.69;7396868;19;20417;-52
2022/11/14 03:38:48;;;;;;;54.73;26.27;;;;;;;6.27;100.00;101586.06;7391835;19;20472;-52
2022/11/14 03:41:20;;;;;;;52.23;24.70;;;;;;;6.24;100.00;101578.13;7394372;19;20409;-52
2022/11/14 03:43:50;;;;;;;51.27;25.10;;;;;;;6.20;100.00;101576.09;7392478;19;21228;-51
2022/11/14 03:46:19;;;;;;;51.70;25.60;;;;;;;6.26;100.00;101576.53;7394134;19;20422;-51
2022/11/14 03:48:49;;;;;;;55.53;26.30;;;;;;;6.28;100.00;101569.88;7390182;19;20993;-50
2022/11/14 03:51:18;;;;;;;56.33;24.97;;;;;;;6.23;100.00;101566.09;7394272;19;20426;-54
2022/11/14 03:53:48;;;;;;;54.17;26.17;;;;;;;6.26;100.00;101560.31;7391771;19;20428;-54
2022/11/14 03:56:20;;;;;;;53.67;27.10;;;;;;;6.44;100.00;101563.28;7398936;19;20398;-56
2022/11/14 03:58:49;;;;;;;55.17;26.67;;;;;;;6.56;100.00;101559.03;7390962;19;20417;-52
2022/11/14 04:01:18;;;;;;;57.50;26.17;;;;;;;6.44;100.00;101568.41;7394285;19;20428;-54
2022/11/14 04:03:48;;;;;;;59.03;28.20;;;;;;;6.33;100.00;101557.41;7391527;19;20996;-53
2022/11/14 04:06:17;;;;;;;53.80;25.30;;;;;;;6.35;100.00;101553.25;7394270;19;20397;-52
2022/11/14 04:08:47;;;;;;;52.67;26.23;;;;;;;6.27;100.00;101551.81;7389707;19;20431;-55
2022/11/14 04:11:16;;;;;;;52.23;25.00;;;;;;;6.37;100.00;101548.25;7393851;19;20421;-51
2022/11/14 04:13:48;;;;;;;56.77;25.37;;;;;;;6.45;100.00;101548.03;7389285;19;20442;-52
2022/11/14 04:16:18;;;;;;;49.50;25.57;;;;;;;6.45;100.00;101549.69;7394071;19;20910;-52
2022/11/14 04:18:47;;;;;;;54.00;25.80;;;;;;;6.38;100.00;101553.50;7391103;19;20433;-50
2022/11/14 04:21:16;;;;;;;60.33;26.40;;;;;;;6.34;100.00;101546.34;7393235;19;20379;-53
2022/11/14 04:23:46;;;;;;;52.27;26.67;;;;;;;6.43;100.00;101541.00;7393953;19;20464;-50
2022/11/14 04:26:15;;;;;;;49.37;26.07;;;;;;;6.55;100.00;101541.88;7393562;19;20421;-56
2022/11/14 04:28:47;;;;;;;53.10;25.37;;;;;;;6.31;100.00;101536.78;7388887;19;20818;-53
2022/11/14 04:31:17;;;;;;;58.57;25.33;;;;;;;6.35;100.00;101532.75;7393029;19;20382;-51
2022/11/14 04:33:46;;;;;;;48.23;24.53;;;;;;;6.29;100.00;101533.22;7389078;19;20421;-52
2022/11/14 04:36:15;;;;;;;51.07;24.97;;;;;;;6.45;100.00;101524.03;7393041;19;20414;-50
2022/11/14 04:38:45;;;;;;;54.17;26.00;;;;;;;6.40;100.00;101530.53;7390046;19;20415;-50
2022/11/14 04:41:14;;;;;;;58.53;27.83;;;;;;;6.37;100.00;101522.63;7392700;19;20839;-51
2022/11/14 04:43:43;;;;;;;46.47;24.83;;;;;;;6.27;100.00;101524.53;7390617;19;20426;-55
2022/11/14 04:46:21;;;;;;;54.60;25.23;;;;;;;6.31;100.00;101526.53;7392857;19;20398;-50
2022/11/14 04:48:51;;;;;;;53.80;26.97;;;;;;;6.23;100.00;101517.41;7388931;19;20433;-53
2022/11/14 04:51:20;;;;;;;53.30;26.10;;;;;;;6.27;100.00;101516.84;7392239;19;20414;-51
2022/11/14 04:53:49;;;;;;;52.87;27.07;;;;;;;6.37;100.00;101514.94;7390164;19;20425;-50
2022/11/14 04:56:21;;;;;;;53.33;25.07;;;;;;;6.49;100.00;101515.78;7392528;19;20889;-50
2022/11/14 04:58:51;;;;;;;50.43;25.80;;;;;;;6.52;100.00;101503.22;7387348;19;20432;-51
2022/11/14 05:01:23;;;;;;;52.30;26.30;;;;;;;6.54;100.00;101501.63;7391954;19;20418;-54
2022/11/14 05:03:53;;;;;;;56.33;27.97;;;;;;;6.48;100.00;101508.88;7388910;19;20403;-55
2022/11/14 05:06:22;;;;;;;57.20;26.27;;;;;;;6.42;100.00;101504.19;7392143;19;20388;-53
2022/11/14 05:08:51;;;;;;;54.83;26.07;;;;;;;6.51;100.00;101503.97;7388443;19;20452;-52
2022/11/14 05:11:22;;;;;;;52.70;26.57;;;;;;;6.38;100.00;101497.09;7391442;19;20418;-50
2022/11/14 05:13:57;;;;;;;52.60;25.93;;;;;;;6.47;100.00;101491.72;7389631;19;20460;-55
2022/11/14 05:16:29;;;;;;;51.10;24.40;;;;;;;6.52;100.00;101485.25;7391816;19;21027;-52
2022/11/14 05:18:58;;;;;;;50.73;25.27;;;;;;;6.52;100.00;101492.94;7387779;19;20427;-53
2022/11/14 05:21:28;;;;;;;48.57;24.90;;;;;;;6.53;100.00;101488.69;7391136;19;20966;-53
2022/11/14 05:23:57;;;;;;;52.07;25.43;;;;;;;6.44;100.00;101486.38;7388719;19;20453;-50
2022/11/14 05:26:26;;;;;;;50.07;25.33;;;;;;;6.40;100.00;101480.16;7391761;19;20387;-51
2022/11/14 05:28:56;;;;;;;47.33;24.13;;;;;;;6.40;100.00;101480.16;7387542;19;20441;-54
2022/11/14 05:31:25;;;;;;;47.13;23.90;;;;;;;6.38;100.00;101471.47;7391617;19;21018;-54
2022/11/14 05:33:57;;;;;;;50.53;25.13;;;;;;;6.39;100.00;101475.81;7388727;19;20441;-56
2022/11/14 05:36:27;;;;;;;53.37;25.60;;;;;;;6.32;100.00;101477.03;7391052;19;20381;-57
2022/11/14 05:38:56;;;;;;;44.57;23.67;;;;;;;6.42;100.00;101475.13;7388552;19;20970;-57
2022/11/14 05:41:26;;;;;;;54.03;26.83;;;;;;;6.38;100.00;101475.69;7390308;19;20415;-55
2022/11/14 05:43:55;;;;;;;53.20;27.00;;;;;;;6.35;100.00;101482.38;7388519;19;20444;-53
2022/11/14 05:46:24;;;;;;;50.80;25.60;;;;;;;6.50;100.00;101479.09;7395234;19;20750;-56
2022/11/14 05:48:56;;;;;;;53.70;26.10;;;;;;;6.33;100.00;101483.06;7387533;19;20449;-55
2022/11/14 05:51:26;;;;;;;50.50;25.30;;;;;;;6.31;100.00;101477.81;7390332;19;20403;-56
2022/11/14 05:53:55;;;;;;;48.50;24.50;;;;;;;6.24;100.00;101478.16;7388998;19;20534;-55
2022/11/14 05:56:25;;;;;;;50.10;25.03;;;;;;;6.28;100.00;101472.50;7390484;19;20387;-55
2022/11/14 05:58:54;;;;;;;55.23;26.47;;;;;;;6.54;100.00;101478.56;7387597;19;20423;-56
2022/11/14 06:01:23;;;;;;;54.73;27.60;;;;;;;6.39;100.00;101482.59;7390193;19;20402;-53
2022/11/14 06:03:53;;;;;;;47.67;24.30;;;;;;;6.39;100.00;101472.34;7388086;19;20411;-52
2022/11/14 06:06:25;;;;;;;52.00;24.50;;;;;;;6.30;100.00;101480.28;7390914;19;20800;-55
2022/11/14 06:08:54;;;;;;;53.80;25.23;;;;;;;6.12;100.00;101483.31;7387314;19;20448;-52
2022/11/14 06:11:24;;;;;;;60.60;27.30;;;;;;;6.14;100.00;101485.97;7388528;19;20955;-54
2022/11/14 06:13:53;;;;;;;56.10;26.30;;;;;;;6.31;100.00;101472.69;7387799;19;20444;-57
2022/11/14 06:16:23;;;;;;;53.50;25.70;;;;;;;6.91;100.00;101469.06;7393323;19;20406;-52
2022/11/14 06:18:54;;;;;;;70.07;30.43;;;;;;;6.49;100.00;101477.34;7387040;19;20462;-52
2022/11/14 06:21:27;;;;;;;107.33;45.70;;;;;;;6.79;100.00;101480.25;7389603;19;20448;-51
2022/11/14 06:23:56;;;;;;;103.40;44.90;;;;;;;7.21;100.00;101469.31;7387239;19;20516;-50
2022/11/14 06:26:29;;;;;;;58.10;27.87;;;;;;;6.77;100.00;101481.81;7389816;19;20402;-56
2022/11/14 06:28:58;;;;;;;74.27;33.63;;;;;;;6.95;100.00;101486.41;7387147;19;20970;-51
2022/11/14 06:31:28;;;;;;;63.60;31.40;;;;;;;6.98;100.00;101484.06;7388720;19;20426;-53
2022/11/14 06:33:58;;;;;;;92.13;41.70;;;;;;;7.06;100.00;101492.28;7387245;19;20792;-52
2022/11/14 06:36:31;;;;;;;83.40;36.90;;;;;;;7.03;100.00;101500.69;7389309;19;20417;-54
2022/11/14 06:39:01;;;;;;;99.10;41.80;;;;;;;7.36;100.00;101497.69;7386711;19;20422;-51
2022/11/14 06:41:30;;;;;;;76.83;36.70;;;;;;;7.05;100.00;101503.31;7388862;19;20533;-55
2022/11/14 06:43:59;;;;;;;58.47;29.47;;;;;;;7.07;100.00;101507.78;7387074;19;21055;-53
2022/11/14 06:46:29;;;;;;;55.27;27.80;;;;;;;7.61;100.00;101494.19;7389444;19;20391;-53
2022/11/14 06:48:58;;;;;;;55.57;27.67;;;;;;;7.41;100.00;101499.81;7386075;19;20444;-52
2022/11/14 06:51:30;;;;;;;56.07;28.20;;;;;;;7.71;100.00;101501.72;7387235;19;20430;-50
2022/11/14 06:54:00;;;;;;;53.13;25.43;;;;;;;7.19;100.00;101514.53;7387072;19;20414;-50
2022/11/14 06:56:29;;;;;;;57.20;27.60;;;;;;;7.17;100.00;101517.00;7388644;19;20399;-54
2022/11/14 06:58:58;;;;;;;57.10;27.73;;;;;;;7.11;100.00;101517.47;7385782;19;20433;-50
2022/11/14 07:01:28;;;;;;;51.83;25.80;;;;;;;6.87;100.00;101525.28;7388233;19;20467;-52
2022/11/14 07:03:59;;;;;;;55.50;27.07;;;;;;;6.73;100.00;101524.31;7386011;19;20403;-54
2022/11/14 07:06:32;;;;;;;53.63;24.90;;;;;;;6.74;100.00;101527.78;7388469;19;20399;-54
2022/11/14 07:09:01;;;;;;;51.60;25.83;;;;;;;6.65;100.00;101528.00;7385781;19;20415;-50
2022/11/14 07:11:32;;;;;;;49.67;25.17;;;;;;;6.76;100.00;101521.06;7386701;19;20415;-51
2022/11/14 07:14:02;;;;;;;57.07;27.00;;;;;;;6.89;100.00;101522.81;7386170;19;20525;-50
2022/11/14 07:16:33;;;;;;;52.77;25.70;;;;;;;7.16;100.00;101528.97;7388945;19;20414;-54
2022/11/14 07:19:04;;;;;;;55.30;25.90;;;;;;;6.78;100.00;101537.47;7385648;19;20960;-56
2022/11/14 07:21:37;;;;;;;57.10;27.30;;;;;;;6.95;100.00;101537.72;7388837;19;20439;-55
2022/11/14 07:24:07;;;;;;;53.20;26.40;;;;;;;7.17;100.00;101540.09;7392965;19;20407;-52
2022/11/14 07:26:36;;;;;;;51.83;24.30;;;;;;;7.16;100.00;101538.31;7395806;19;20705;-50
2022/11/14 07:29:06;;;;;;;50.10;24.90;;;;;;;7.09;100.00;101538.69;7392431;19;20411;-53
2022/11/14 07:31:35;;;;;;;53.20;25.43;;;;;;;7.08;100.00;101542.91;7393315;19;20407;-52
2022/11/14 07:34:04;;;;;;;66.00;30.33;;;;;;;7.21;100.00;101538.63;7391815;19;20422;-58
2022/11/14 07:36:36;;;;;;;62.20;29.43;;;;;;;6.89;100.00;101541.66;7394992;19;20399;-50
2022/11/14 07:39:06;;;;;;;57.23;26.90;;;;;;;6.91;100.00;101546.91;7392233;19;20406;-53
2022/11/14 07:41:35;;;;;;;66.00;30.70;;;;;;;6.58;100.00;101539.53;7394344;19;20434;-52
2022/11/14 07:44:05;;;;;;;57.67;25.90;;;;;;;6.35;100.00;101549.03;7392735;19;20414;-50
2022/11/14 07:46:34;;;;;;;57.00;26.67;;;;;;;6.14;100.00;101550.03;7395194;19;20379;-53
2022/11/14 07:49:04;;;;;;;54.43;26.03;;;;;;;6.12;100.00;101536.22;7394096;19;20466;-53
2022/11/14 07:51:37;;;;;;;58.33;27.20;;;;;;;6.15;100.00;101541.59;7392986;19;21026;-51
2022/11/14 07:54:06;;;;;;;56.90;26.60;;;;;;;6.10;100.00;101535.25;7392819;19;20420;-55
2022/11/14 07:56:36;;;;;;;60.23;27.07;;;;;;;6.09;100.00;101524.09;7394600;19;20417;-54
2022/11/14 07:59:05;;;;;;;61.77;27.03;;;;;;;5.91;100.00;101519.38;7391286;19;20431;-53
2022/11/14 08:01:34;;;;;;;59.63;27.07;;;;;;;5.79;100.00;101513.34;7393600;19;20401;-51
2022/11/14 08:04:04;;;;;;;56.40;26.50;;;;;;;5.84;100.00;101508.59;7391699;19;20509;-53
2022/11/14 08:06:33;;;;;;;66.53;27.37;;;;;;;5.92;100.00;101500.69;7394129;19;20401;-51
2022/11/14 08:09:05;;;;;;;61.37;25.50;;;;;;;5.75;100.00;101501.13;7390877;19;20442;-51
2022/11/14 08:14:17;;;;;;;63.87;28.70;;;;;;;5.75;100.00;101491.75;7391371;19;20421;-55
2022/11/14 08:16:46;;;;;;;55.90;26.60;;;;;;;5.66;100.00;101491.09;7393853;19;20416;-57
2022/11/14 08:19:16;;;;;;;58.60;26.30;;;;;;;5.56;100.00;101483.50;7393139;19;20452;-52
2022/11/14 08:21:45;;;;;;;56.83;25.60;;;;;;;5.48;100.00;101486.38;7393399;19;20425;-54
2022/11/14 08:24:17;;;;;;;60.30;26.70;;;;;;;5.46;100.00;101480.28;7390933;19;20448;-54
2022/11/14 08:26:47;;;;;;;58.40;27.40;;;;;;;5.44;100.00;101476.69;7391681;19;20385;-53
2022/11/14 08:29:16;;;;;;;69.30;28.77;;;;;;;5.48;100.00;101471.03;7390318;19;20430;-50
2022/11/14 08:31:47;;;;;;;69.80;30.60;;;;;;;5.49;100.00;101459.13;7391699;19;20441;-54
2022/11/14 08:34:16;;;;;;;73.57;28.40;;;;;;;5.52;100.00;101459.34;7390753;19;20465;-53
2022/11/14 08:36:46;;;;;;;61.13;27.40;;;;;;;5.53;100.00;101449.22;7391600;19;20368;-54
2022/11/14 08:39:18;;;;;;;67.20;30.47;;;;;;;5.56;100.00;101437.41;7390485;19;20563;-52
2022/11/14 08:41:47;;;;;;;68.20;29.10;;;;;;;5.53;100.00;101432.97;7395871;19;20455;-53
2022/11/14 08:44:17;;;;;;;75.77;30.20;;;;;;;5.62;100.00;101441.31;7390930;19;20512;-55
2022/11/14 08:46:46;;;;;;;63.87;29.53;;;;;;;5.60;100.00;101440.34;7394840;19;20411;-55
2022/11/14 08:49:16;;;;;;;66.30;28.50;;;;;;;5.58;100.00;101441.00;7389958;19;20430;-57
2022/11/14 08:51:45;;;;;;;64.80;30.63;;;;;;;5.56;100.00;101438.31;7391610;19;20448;-54
2022/11/14 08:54:17;;;;;;;60.40;28.17;;;;;;;5.51;100.00;101432.88;7392313;19;20792;-57
2022/11/14 08:56:47;;;;;;;69.17;29.97;;;;;;;5.51;100.00;101432.88;7392749;19;20956;-52
2022/11/14 08:59:16;;;;;;;66.47;28.37;;;;;;;5.52;100.00;101426.97;7389856;19;20994;-54
2022/11/14 09:01:45;;;;;;;69.17;31.03;;;;;;;5.47;100.00;101428.28;7391403;19;20453;-53
2022/11/14 09:04:15;;;;;;;73.20;28.90;;;;;;;5.42;100.00;101419.38;7389371;19;20451;-52
2022/11/14 09:06:45;;;;;;;67.73;30.47;;;;;;;5.50;100.00;101415.69;7391790;19;20400;-52
2022/11/14 09:09:14;;;;;;;73.70;29.67;;;;;;;5.55;100.00;101410.94;7388806;19;20422;-53
2022/11/14 09:11:46;;;;;;;69.03;28.50;;;;;;;5.48;100.00;101413.84;7391764;19;21139;-51
2022/11/14 09:14:16;;;;;;;70.43;29.27;;;;;;;5.56;100.00;101406.69;7389666;19;20414;-56
2022/11/14 09:16:45;;;;;;;64.63;28.00;;;;;;;5.62;100.00;101409.69;7392204;19;20432;-51
2022/11/14 09:19:15;;;;;;;74.80;28.07;;;;;;;5.62;100.00;101405.47;7387012;19;20434;-52
2022/11/14 09:21:44;;;;;;;71.97;28.60;;;;;;;5.51;100.00;101394.47;7391068;19;20440;-51
2022/11/14 09:24:14;;;;;;;72.67;28.10;;;;;;;5.48;100.00;101404.47;7389687;19;20435;-54
2022/11/14 09:26:43;;;;;;;75.97;29.40;;;;;;;5.51;100.00;101394.47;7391692;19;20390;-51
2022/11/14 09:29:17;;;;;;;72.37;29.20;;;;;;;5.52;100.00;101398.81;7388416;19;20452;-53
2022/11/14 09:31:47;;;;;;;68.37;28.20;;;;;;;5.50;100.00;101402.03;7390361;19;20445;-53
2022/11/14 09:34:17;;;;;;;66.83;29.03;;;;;;;5.52;100.00;101392.78;7386848;19;20423;-53
2022/11/14 09:36:46;;;;;;;61.33;26.83;;;;;;;5.53;100.00;101398.03;7391605;19;20420;-54
2022/11/14 09:39:16;;;;;;;64.50;28.60;;;;;;;5.59;100.00;101391.56;7387888;19;20523;-53
2022/11/14 09:41:58;;;;;;;76.97;35.07;;;;;;;5.77;100.00;101382.66;7390444;19;20450;-56
2022/11/14 09:44:42;;;;;;;94.20;39.13;;;;;;;6.23;100.00;101379.00;7388253;19;20441;-50
2022/11/14 09:47:14;;;;;;;142.83;63.53;;;;;;;6.51;100.00;101382.59;7394258;19;20394;-52
2022/11/14 09:49:51;;;;;;;64.67;27.10;;;;;;;6.20;100.00;101389.03;7389226;19;20417;-51
2022/11/14 09:52:29;;;;;;;63.67;29.80;;;;;;;6.14;100.00;101398.84;7387709;19;20934;-54
2022/11/14 09:55:01;;;;;;;61.27;27.23;;;;;;;5.93;100.00;101394.88;7394883;19;20391;-55
2022/11/14 09:57:31;;;;;;;61.20;27.17;;;;;;;5.95;100.00;101387.31;7387894;19;20424;-54
2022/11/14 10:00:03;;;;;;;60.97;26.03;;;;;;;5.85;100.00;101392.56;7389922;19;20415;-50
2022/11/14 10:02:43;;;;;;;61.77;26.17;;;;;;;5.79;100.00;101386.19;7387143;19;23254;-53
2022/11/14 10:05:23;;;;;;;63.73;27.10;;;;;;;5.89;100.00;101392.00;7390449;19;20755;-57
2022/11/14 10:08:07;;;;;;;72.10;28.97;;;;;;;5.80;100.00;101393.09;7387833;19;20417;-52
2022/11/14 10:10:50;;;;;;;64.50;25.70;;;;;;;5.75;100.00;101399.56;7389330;19;20725;-51
2022/11/14 10:13:31;;;;;;;67.30;27.07;;;;;;;5.71;100.00;101407.81;7386745;19;20443;-55
2022/11/14 10:16:06;;;;;;;60.57;27.90;;;;;;;5.77;100.00;101399.69;7389930;19;20382;-54
2022/11/14 10:18:43;;;;;;;59.83;27.77;;;;;;;5.81;100.00;101387.19;7388991;19;20413;-55
2022/11/14 10:21:27;;;;;;;61.93;27.60;;;;;;;5.86;100.00;101391.75;7389878;19;20426;-56
2022/11/14 10:24:03;;;;;;;67.13;28.90;;;;;;;5.94;100.00;101377.81;7390162;19;20495;-52
2022/11/14 10:26:35;;;;;;;63.33;26.80;;;;;;;5.98;100.00;101372.13;7390468;19;20391;-50
2022/11/14 10:29:25;;;;;;;59.03;27.40;;;;;;;5.97;100.00;101364.34;7386971;19;20423;-55
2022/11/14 10:32:05;;;;;;;54.17;25.93;;;;;;;6.01;100.00;101363.78;7387432;19;20468;-52
2022/11/14 10:34:40;;;;;;;58.87;25.83;;;;;;;5.93;100.00;101359.00;7384279;19;20425;-55
2022/11/14 10:37:17;;;;;;;61.27;27.90;;;;;;;5.89;100.00;101369.81;7389609;19;20411;-53
2022/11/14 10:39:50;;;;;;;60.47;25.90;;;;;;;5.97;100.00;101360.13;7388202;19;20425;-52
2022/11/14 10:42:24;;;;;;;63.83;27.47;;;;;;;6.02;100.00;101350.19;7386263;19;20427;-54
2022/11/14 10:45:00;;;;;;;59.47;27.33;;;;;;;6.03;100.00;101346.88;7388887;19;20424;-54
2022/11/14 10:47:38;;;;;;;62.20;26.03;;;;;;;6.10;100.00;101349.06;7390983;19;20401;-51
2022/11/14 10:50:17;;;;;;;53.40;24.77;;;;;;;6.21;100.00;101345.59;7388625;19;20432;-54
2022/11/14 10:52:48;;;;;;;64.77;24.77;;;;;;;6.19;100.00;101341.13;7384942;19;20425;-54
2022/11/14 10:55:20;;;;;;;59.80;26.83;;;;;;;6.20;100.00;101338.69;7388682;19;20391;-53
2022/11/14 10:58:12;;;;;;;61.23;27.37;;;;;;;6.28;100.00;101340.88;7392491;19;20945;-52
2022/11/14 11:00:41;;;;;;;64.23;27.77;;;;;;;6.32;100.00;101320.69;7396053;19;20795;-53
2022/11/14 11:03:14;;;;;;;62.77;26.93;;;;;;;6.38;100.00;101334.72;7392809;19;20398;-57
2022/11/14 11:05:48;;;;;;;60.30;26.80;;;;;;;6.42;100.00;101335.00;7396230;19;20935;-51
2022/11/14 11:13:57;;;;;;;62.90;26.90;;;;;;;6.55;100.00;101329.06;7391889;19;20425;-52
2022/11/14 11:16:28;;;;;;;93.20;39.03;;;;;;;7.70;100.00;101323.56;7395369;19;20390;-54
2022/11/14 11:19:15;;;;;;;82.67;36.83;;;;;;;7.76;100.00;101317.03;7393034;19;20442;-53
2022/11/14 11:21:49;;;;;;;90.20;37.70;;;;;;;8.26;100.00;101320.97;7394863;19;20431;-56
2022/11/14 11:24:33;;;;;;;104.73;47.70;;;;;;;8.37;100.00;101326.72;7393635;19;20420;-53
2022/11/14 11:27:21;;;;;;;189.37;84.40;;;;;;;8.47;100.00;101325.59;7395907;19;20406;-51
2022/11/14 11:30:04;;;;;;;62.47;30.07;;;;;;;8.50;100.00;101316.38;7393553;19;20783;-53
2022/11/14 11:32:34;;;;;;;66.83;30.00;;;;;;;8.09;100.00;101327.63;7386052;19;20782;-54
2022/11/14 11:35:13;;;;;;;77.67;32.70;;;;;;;7.95;100.00;101325.09;7393320;19;20382;-54